createdAt,value
2022-10-19T09:43:55.414Z,15.76
2022-10-19T09:50:16.339Z,16.03
2022-10-19T09:52:46.778Z,15.94
2022-10-19T09:55:34.870Z,15.88
2022-10-19T09:58:16.065Z,15.74
2022-10-19T10:00:50.605Z,15.93
2022-10-19T10:03:30.756Z,15.88
2022-10-19T10:06:05.109Z,15.65
2022-10-19T10:08:39.170Z,16.08
2022-10-19T10:11:13.343Z,16.34
2022-10-19T10:13:49.089Z,16.48
2022-10-19T10:16:23.346Z,16.10
2022-10-19T10:21:52.530Z,16.20
2022-10-19T10:24:24.383Z,16.36
2022-10-19T10:26:56.679Z,16.48
2022-10-19T10:29:27.967Z,16.67
2022-10-19T10:32:04.547Z,16.95
2022-10-19T10:34:49.873Z,16.76
2022-10-19T10:37:25.370Z,17.41
2022-10-19T10:40:00.306Z,16.93
2022-10-19T10:42:42.396Z,17.48
2022-10-19T10:45:21.442Z,17.42
2022-10-19T10:47:52.250Z,17.08
2022-10-19T10:50:25.681Z,17.18
2022-10-19T10:53:00.763Z,16.32
2022-10-19T10:55:30.725Z,16.65
2022-10-19T10:58:15.131Z,16.80
2022-10-19T11:00:47.670Z,16.41
2022-10-19T11:03:25.599Z,16.38
2022-10-19T11:05:59.415Z,16.08
2022-10-19T11:08:35.146Z,15.91
2022-10-19T11:11:15.085Z,15.94
2022-10-19T11:13:52.627Z,15.54
2022-10-19T11:16:28.412Z,15.72
2022-10-19T11:19:06.750Z,15.82
2022-10-19T11:21:44.175Z,15.42
2022-10-19T11:24:24.054Z,15.27
2022-10-19T11:27:14.468Z,15.18
2022-10-19T11:30:13.542Z,15.45
2022-10-19T11:33:14.633Z,16.07
2022-10-19T11:35:57.270Z,16.69
2022-10-19T11:38:39.241Z,16.27
2022-10-19T11:41:34.115Z,16.81
2022-10-19T11:44:28.037Z,16.47
2022-10-19T11:47:23.047Z,16.87
2022-10-19T11:50:12.647Z,16.66
2022-10-19T11:52:57.739Z,17.01
2022-10-19T11:55:42.148Z,17.74
2022-10-19T11:58:35.716Z,18.05
2022-10-19T12:01:20.332Z,17.88
2022-10-19T12:04:32.902Z,17.52
2022-10-19T12:07:21.221Z,17.45
2022-10-19T12:10:04.727Z,17.33
2022-10-19T12:12:38.063Z,17.04
2022-10-19T12:15:27.343Z,17.64
2022-10-19T12:18:02.564Z,17.33
2022-10-19T12:20:38.460Z,17.59
2022-10-19T12:23:25.869Z,17.45
2022-10-19T12:26:00.842Z,17.53
2022-10-19T12:28:33.648Z,17.99
2022-10-19T12:31:05.519Z,17.98
2022-10-19T12:33:49.706Z,17.41
2022-10-19T12:36:33.140Z,18.02
2022-10-19T12:39:13.890Z,18.67
2022-10-19T12:41:53.493Z,18.28
2022-10-19T12:45:02.223Z,17.94
2022-10-19T12:47:30.742Z,17.54
2022-10-19T12:50:00.178Z,17.39
2022-10-19T12:52:45.460Z,18.06
2022-10-19T12:55:34.891Z,17.31
2022-10-19T12:58:17.254Z,16.88
2022-10-19T13:01:00.225Z,16.93
2022-10-19T13:03:34.808Z,17.28
2022-10-19T13:06:13.470Z,17.90
2022-10-19T13:08:48.398Z,18.08
2022-10-19T13:11:17.125Z,17.98
2022-10-19T13:14:03.798Z,17.34
2022-10-19T13:16:56.513Z,17.66
2022-10-19T13:19:25.904Z,17.39
2022-10-19T13:22:28.462Z,17.52
2022-10-19T13:25:26.800Z,17.59
2022-10-19T13:27:58.191Z,17.58
2022-10-19T13:31:08.254Z,17.55
2022-10-19T13:33:54.068Z,17.69
2022-10-19T13:36:25.620Z,17.89
2022-10-19T13:39:15.478Z,18.24
2022-10-19T13:41:56.551Z,18.21
2022-10-19T13:44:36.566Z,17.50
2022-10-19T13:47:39.470Z,17.49
2022-10-19T13:50:33.084Z,17.51
2022-10-19T13:53:40.720Z,17.70
2022-10-19T13:56:43.632Z,17.87
2022-10-19T14:00:05.330Z,17.86
2022-10-19T14:03:23.566Z,17.56
2022-10-19T14:06:09.685Z,17.18
2022-10-19T14:09:10.331Z,17.57
2022-10-19T14:11:43.065Z,17.56
2022-10-19T14:14:18.264Z,17.67
2022-10-19T14:16:52.694Z,17.66
2022-10-19T14:19:32.276Z,17.56
2022-10-19T14:22:18.171Z,17.38
2022-10-19T14:24:46.732Z,16.88
2022-10-19T14:27:23.539Z,16.85
2022-10-19T14:29:55.135Z,16.84
2022-10-19T14:32:27.630Z,16.81
2022-10-19T14:37:34.179Z,16.90
2022-10-19T14:40:07.182Z,16.96
2022-10-19T14:42:43.250Z,16.78
2022-10-19T14:45:21.079Z,16.69
2022-10-19T14:47:56.329Z,16.60
2022-10-19T14:53:23.634Z,16.78
2022-10-19T14:55:57.047Z,16.64
2022-10-19T14:58:32.939Z,16.66
2022-10-19T15:01:01.670Z,16.54
2022-10-19T15:03:32.212Z,16.61
2022-10-19T15:06:07.162Z,16.66
2022-10-19T15:08:42.701Z,16.59
2022-10-19T15:11:27.802Z,16.57
2022-10-19T15:14:08.973Z,16.54
2022-10-19T15:16:51.899Z,16.20
2022-10-19T15:19:28.661Z,16.26
2022-10-19T15:22:21.697Z,16.31
2022-10-19T15:25:04.307Z,16.28
2022-10-19T15:27:38.260Z,16.34
2022-10-19T15:30:25.544Z,16.06
2022-10-19T15:33:11.183Z,15.99
2022-10-19T15:35:45.084Z,15.94
2022-10-19T15:38:26.827Z,15.70
2022-10-19T15:41:00.767Z,15.69
2022-10-19T15:43:52.421Z,15.70
2022-10-19T15:46:31.594Z,15.72
2022-10-19T15:49:05.439Z,15.68
2022-10-19T15:51:44.565Z,15.54
2022-10-19T15:54:17.279Z,15.46
2022-10-19T15:56:48.427Z,15.44
2022-10-19T15:59:20.646Z,15.27
2022-10-19T16:01:53.695Z,15.29
2022-10-19T16:04:24.478Z,15.33
2022-10-19T16:06:53.082Z,15.26
2022-10-19T16:09:23.259Z,15.20
2022-10-19T16:11:56.689Z,14.94
2022-10-19T16:14:26.411Z,14.71
2022-10-19T16:17:03.701Z,14.51
2022-10-19T16:19:32.319Z,14.37
2022-10-19T16:22:00.962Z,14.31
2022-10-19T16:24:31.870Z,14.19
2022-10-19T16:27:00.566Z,14.05
2022-10-19T16:29:29.237Z,13.82
2022-10-19T16:31:57.746Z,13.69
2022-10-19T16:34:26.322Z,13.50
2022-10-19T16:36:54.900Z,13.27
2022-10-19T16:39:25.453Z,13.17
2022-10-19T16:41:55.402Z,12.95
2022-10-19T16:44:23.942Z,12.85
2022-10-19T16:46:56.596Z,12.75
2022-10-19T16:49:25.195Z,12.61
2022-10-19T16:51:57.180Z,12.55
2022-10-19T16:54:27.306Z,12.52
2022-10-19T16:56:57.208Z,12.59
2022-10-19T16:59:25.780Z,12.55
2022-10-19T17:01:54.764Z,12.54
2022-10-19T17:04:23.347Z,12.53
2022-10-19T17:06:51.883Z,12.65
2022-10-19T17:12:10.787Z,12.65
2022-10-19T17:14:42.248Z,12.69
2022-10-19T17:17:12.836Z,12.65
2022-10-19T17:19:41.762Z,12.62
2022-10-19T17:22:10.264Z,12.59
2022-10-19T17:24:39.306Z,12.59
2022-10-19T17:27:09.712Z,12.58
2022-10-19T17:29:38.192Z,12.55
2022-10-19T17:32:07.818Z,12.42
2022-10-19T17:34:36.409Z,12.48
2022-10-19T17:37:05.077Z,12.40
2022-10-19T17:39:33.524Z,12.40
2022-10-19T17:42:03.308Z,12.39
2022-10-19T17:44:33.394Z,12.46
2022-10-19T17:47:02.099Z,12.26
2022-10-19T17:49:30.729Z,12.05
2022-10-19T17:51:59.708Z,11.87
2022-10-19T17:54:28.413Z,11.62
2022-10-19T17:56:57.041Z,11.49
2022-10-19T17:59:34.795Z,11.33
2022-10-19T18:02:11.539Z,11.12
2022-10-19T18:04:40.260Z,11.20
2022-10-19T18:07:08.706Z,11.21
2022-10-19T18:09:37.217Z,11.35
2022-10-19T18:12:07.550Z,11.43
2022-10-19T18:14:36.184Z,11.46
2022-10-19T18:17:04.722Z,11.48
2022-10-19T18:19:34.636Z,11.51
2022-10-19T18:22:03.422Z,11.46
2022-10-19T18:24:32.921Z,11.39
2022-10-19T18:27:01.816Z,11.36
2022-10-19T18:29:30.295Z,11.33
2022-10-19T18:31:59.122Z,11.21
2022-10-19T18:34:28.330Z,11.18
2022-10-19T18:36:58.160Z,11.18
2022-10-19T18:39:26.767Z,11.23
2022-10-19T18:41:55.573Z,11.29
2022-10-19T18:44:26.990Z,11.27
2022-10-19T18:46:57.776Z,11.23
2022-10-19T18:49:27.008Z,11.23
2022-10-19T18:51:56.882Z,11.26
2022-10-19T18:54:27.985Z,11.28
2022-10-19T18:56:57.017Z,11.31
2022-10-19T19:01:54.340Z,11.14
2022-10-19T19:04:23.035Z,11.14
2022-10-19T19:06:51.513Z,11.08
2022-10-19T19:09:21.657Z,11.22
2022-10-19T19:11:51.464Z,11.21
2022-10-19T19:14:21.960Z,11.23
2022-10-19T19:16:50.647Z,11.32
2022-10-19T19:19:20.777Z,11.34
2022-10-19T19:21:49.963Z,11.32
2022-10-19T19:24:22.993Z,11.35
2022-10-19T19:26:55.079Z,11.38
2022-10-19T19:29:23.794Z,11.25
2022-10-19T19:31:53.382Z,11.16
2022-10-19T19:34:21.991Z,11.13
2022-10-19T19:36:50.523Z,11.06
2022-10-19T19:39:22.290Z,11.00
2022-10-19T19:41:51.649Z,10.98
2022-10-19T19:44:20.643Z,11.01
2022-10-19T19:46:49.227Z,11.04
2022-10-19T19:49:18.181Z,11.04
2022-10-19T19:51:46.695Z,11.10
2022-10-19T19:54:15.160Z,11.03
2022-10-19T19:56:45.125Z,10.98
2022-10-19T19:59:14.378Z,11.05
2022-10-19T20:01:43.498Z,10.97
2022-10-19T20:04:12.905Z,11.04
2022-10-19T20:06:44.452Z,10.97
2022-10-19T20:09:13.035Z,11.02
2022-10-19T20:11:42.825Z,11.03
2022-10-19T20:14:13.718Z,10.95
2022-10-19T20:16:42.349Z,11.03
2022-10-19T20:19:15.002Z,11.02
2022-10-19T20:21:43.827Z,10.96
2022-10-19T20:24:12.315Z,10.95
2022-10-19T20:26:41.111Z,11.00
2022-10-19T20:29:09.638Z,10.90
2022-10-19T20:31:40.590Z,10.98
2022-10-19T20:34:12.218Z,10.80
2022-10-19T20:36:41.277Z,10.77
2022-10-19T20:39:11.050Z,10.79
2022-10-19T20:41:39.952Z,10.69
2022-10-19T20:44:08.483Z,10.65
2022-10-19T20:46:37.788Z,10.54
2022-10-19T20:49:07.896Z,10.44
2022-10-19T20:51:38.376Z,10.51
2022-10-19T20:54:09.565Z,10.44
2022-10-19T20:56:41.111Z,10.33
2022-10-19T20:59:14.359Z,10.28
2022-10-19T21:01:44.573Z,10.37
2022-10-19T21:04:16.349Z,10.34
2022-10-19T21:06:48.034Z,10.13
2022-10-19T21:09:19.778Z,10.17
2022-10-19T21:11:50.150Z,10.15
2022-10-19T21:14:25.340Z,10.23
2022-10-19T21:16:57.931Z,10.19
2022-10-19T21:19:30.890Z,10.19
2022-10-19T21:22:02.785Z,10.12
2022-10-19T21:24:35.130Z,10.09
2022-10-19T21:27:07.498Z,10.00
2022-10-19T21:29:36.760Z,10.02
2022-10-19T21:32:05.600Z,9.90
2022-10-19T21:34:35.956Z,9.96
2022-10-19T21:37:04.603Z,9.96
2022-10-19T21:39:33.111Z,9.88
2022-10-19T21:42:02.611Z,9.89
2022-10-19T21:44:31.083Z,9.85
2022-10-19T21:46:59.618Z,9.86
2022-10-19T21:49:28.099Z,9.79
2022-10-19T21:51:58.093Z,9.78
2022-10-19T21:54:27.574Z,9.85
2022-10-19T21:56:57.662Z,9.75
2022-10-19T21:59:26.496Z,9.84
2022-10-19T22:01:56.346Z,9.86
2022-10-19T22:04:25.404Z,9.80
2022-10-19T22:06:54.068Z,9.71
2022-10-19T22:09:24.359Z,9.81
2022-10-19T22:11:52.881Z,9.82
2022-10-19T22:14:21.500Z,9.88
2022-10-19T22:16:49.941Z,9.91
2022-10-19T22:19:18.915Z,9.80
2022-10-19T22:21:47.347Z,9.69
2022-10-19T22:24:17.046Z,9.77
2022-10-19T22:26:50.685Z,9.74
2022-10-19T22:29:19.570Z,9.76
2022-10-19T22:31:47.994Z,9.64
2022-10-19T22:34:19.068Z,9.63
2022-10-19T22:36:47.856Z,9.61
2022-10-19T22:39:17.761Z,9.48
2022-10-19T22:41:47.558Z,9.46
2022-10-19T22:44:16.151Z,9.47
2022-10-19T22:46:44.674Z,9.37
2022-10-19T22:49:13.543Z,9.43
2022-10-19T22:51:42.026Z,9.46
2022-10-19T22:54:10.633Z,9.43
2022-10-19T22:56:39.346Z,9.38
2022-10-19T22:59:10.441Z,9.33
2022-10-19T23:01:39.470Z,9.31
2022-10-19T23:04:08.106Z,9.29
2022-10-19T23:06:36.574Z,9.23
2022-10-19T23:09:05.629Z,9.29
2022-10-19T23:11:34.268Z,9.31
2022-10-19T23:14:02.803Z,9.28
2022-10-19T23:16:32.591Z,9.07
2022-10-19T23:19:01.070Z,9.08
2022-10-19T23:21:29.642Z,9.10
2022-10-19T23:23:58.145Z,8.93
2022-10-19T23:26:26.812Z,8.83
2022-10-19T23:28:55.305Z,8.95
2022-10-19T23:31:28.363Z,8.97
2022-10-19T23:33:58.202Z,8.85
2022-10-19T23:36:29.912Z,8.89
2022-10-19T23:38:59.280Z,8.90
2022-10-19T23:41:27.965Z,8.95
2022-10-19T23:43:56.466Z,8.96
2022-10-19T23:46:25.227Z,8.88
2022-10-19T23:48:53.791Z,8.87
2022-10-19T23:51:24.459Z,8.75
2022-10-19T23:53:54.126Z,8.74
2022-10-19T23:56:26.724Z,8.77
2022-10-19T23:58:55.650Z,8.83
